Albany, Ohio
Current Conditions -  °F | °C
As of 12:35 AM on Wednesday 22 Oct 2014 (Local Time) from KUNI Reporting Station
Overcast Overcast  
Wind Chill: 42°   Ceiling: 1800
Heat Index: 46°   Visibility: 10mi
Dew Point: 40°   Wind: 7mph
Humidity: 79%   Direction: 300°WNW
Pressure: 30.11"   Gusts: NA
Location:  39.23°N, 82.2°W
Report Text: KUNI 220435Z AUTO 30006KT 10SM BKN018 BKN033 OVC050 08/04 A3011 RMK AO2 T00770043
Loading
Personal Weather Stations






























Interactive Weather Map
Tropical Storm Tracking
New forecast layout! Learn more

10-Day Weather Forecast

Advertisements
Track Severe Weather on mobile